EJU75NR LPPT-LSZH
Flight info
| Callsign | EJU75NR |
|---|---|
| Flight time | N/A |
| Altitude | 36000 |
| Route | IXIDA DCT TOSDI DCT ZMR DCT NEA DCT DGO DCT LPA DCT GOSVI DCT TOPTU DCT TOU DCT GAI DCT MEN DCT NINUN DCT LATAM DCT ETREK/N0407F300 DCT LTP DCT SOPLO DCT OMASI DCT KINNI DCT LAMUR DCT GUDAX Z57 DOPIL |
| Aircraft | A319/M-SDE2E3FGIJ1RWXYZ/LB1 |
Departure
| Time | 2026-05-05 14:54 |
|---|---|
| Airport | Lisbon Humberto Delgado Airport (LPPT) |
Arrival
| Time | N/A |
|---|---|
| Airport | Zürich Airport (LSZH) |
| Time | Latitude | Longitude | Altitude | Speed | Heading |
|---|---|---|---|---|---|
| 2026-05-05 14:19 | 38.76892 | -9.13051 | 334 ft | 0 kts | 78° |
| 2026-05-05 14:46 | 38.76890 | -9.13064 | 334 ft | 4 kts | 78° |
| 2026-05-05 14:46 | 38.76884 | -9.13097 | 334 ft | 3 kts | 78° |
| 2026-05-05 14:46 | 38.76881 | -9.13124 | 337 ft | 4 kts | 110° |
| 2026-05-05 14:47 | 38.76897 | -9.13143 | 336 ft | 4 kts | 166° |
| 2026-05-05 14:47 | 38.76900 | -9.13144 | 337 ft | 4 kts | 168° |
| 2026-05-05 14:47 | 38.76883 | -9.13140 | 336 ft | 1 kts | 168° |
| 2026-05-05 14:49 | 38.76869 | -9.13136 | 336 ft | 7 kts | 168° |
| 2026-05-05 14:49 | 38.76812 | -9.13124 | 337 ft | 8 kts | 180° |
| 2026-05-05 14:50 | 38.76781 | -9.13169 | 339 ft | 8 kts | 254° |
| 2026-05-05 14:50 | 38.76757 | -9.13303 | 348 ft | 22 kts | 257° |
| 2026-05-05 14:50 | 38.76674 | -9.13455 | 351 ft | 21 kts | 225° |
| 2026-05-05 14:50 | 38.76632 | -9.13625 | 345 ft | 20 kts | 258° |
| 2026-05-05 14:51 | 38.76604 | -9.13797 | 346 ft | 20 kts | 258° |
| 2026-05-05 14:51 | 38.76575 | -9.13966 | 346 ft | 19 kts | 257° |
| 2026-05-05 14:51 | 38.76501 | -9.14104 | 352 ft | 19 kts | 242° |
| 2026-05-05 14:51 | 38.76521 | -9.14253 | 338 ft | 14 kts | 291° |
| 2026-05-05 14:52 | 38.76541 | -9.14314 | 336 ft | 0 kts | 294° |
| 2026-05-05 14:52 | 38.76543 | -9.14321 | 334 ft | 3 kts | 294° |
| 2026-05-05 14:52 | 38.76568 | -9.14380 | 332 ft | 15 kts | 311° |
| 2026-05-05 14:53 | 38.76671 | -9.14375 | 336 ft | 16 kts | 22° |
| 2026-05-05 14:53 | 38.76912 | -9.14247 | 349 ft | 71 kts | 22° |
| 2026-05-05 14:53 | 38.77568 | -9.13897 | 368 ft | 131 kts | 22° |
| 2026-05-05 14:53 | 38.78564 | -9.13377 | 414 ft | 172 kts | 18° |
| 2026-05-05 14:54 | 38.79648 | -9.12791 | 1102 ft | 169 kts | 21° |
| 2026-05-05 14:54 | 38.80723 | -9.12153 | 1741 ft | 173 kts | 16° |
| 2026-05-05 14:54 | 38.81880 | -9.11447 | 2095 ft | 197 kts | 24° |
| 2026-05-05 14:54 | 38.83136 | -9.10506 | 2434 ft | 222 kts | 26° |
| 2026-05-05 14:55 | 38.84538 | -9.09443 | 2890 ft | 245 kts | 27° |
| 2026-05-05 14:55 | 38.86000 | -9.08317 | 3698 ft | 252 kts | 27° |
| 2026-05-05 14:55 | 38.87515 | -9.07139 | 4637 ft | 257 kts | 28° |
| 2026-05-05 14:55 | 38.89054 | -9.05940 | 5539 ft | 261 kts | 30° |
| 2026-05-05 14:56 | 38.90492 | -9.04477 | 6445 ft | 267 kts | 39° |
| 2026-05-05 14:56 | 38.91868 | -9.02865 | 7338 ft | 269 kts | 39° |
| 2026-05-05 14:56 | 38.93259 | -9.01241 | 8176 ft | 273 kts | 38° |
| 2026-05-05 14:56 | 38.94677 | -8.99590 | 9036 ft | 277 kts | 38° |
| 2026-05-05 14:57 | 38.96113 | -8.97916 | 9875 ft | 281 kts | 38° |
| 2026-05-05 14:57 | 38.97589 | -8.96198 | 10431 ft | 296 kts | 38° |
| 2026-05-05 14:57 | 38.99153 | -8.94380 | 10724 ft | 317 kts | 38° |
| 2026-05-05 14:57 | 39.00817 | -8.92444 | 11303 ft | 327 kts | 38° |
| 2026-05-05 14:58 | 39.02513 | -8.90464 | 12019 ft | 332 kts | 38° |
| 2026-05-05 14:58 | 39.04235 | -8.88447 | 12729 ft | 337 kts | 38° |
| 2026-05-05 14:58 | 39.05980 | -8.86402 | 13435 ft | 342 kts | 38° |
| 2026-05-05 14:58 | 39.07754 | -8.84325 | 14105 ft | 347 kts | 38° |
| 2026-05-05 14:59 | 39.09551 | -8.82217 | 14721 ft | 352 kts | 38° |
| 2026-05-05 14:59 | 39.11365 | -8.80083 | 15341 ft | 356 kts | 38° |
| 2026-05-05 14:59 | 39.13203 | -8.77922 | 15953 ft | 360 kts | 38° |
| 2026-05-05 14:59 | 39.15062 | -8.75739 | 16564 ft | 364 kts | 38° |
| 2026-05-05 15:00 | 39.16895 | -8.73528 | 17167 ft | 369 kts | 42° |
| 2026-05-05 15:00 | 39.18058 | -8.71850 | 17581 ft | 373 kts | 44° |
| 2026-05-05 15:00 | 39.20343 | -8.68501 | 18422 ft | 378 kts | 44° |
| 2026-05-05 15:00 | 39.22090 | -8.65946 | 18953 ft | 382 kts | 44° |
| 2026-05-05 15:01 | 39.23854 | -8.63364 | 19475 ft | 385 kts | 44° |
| 2026-05-05 15:01 | 39.25634 | -8.60757 | 20004 ft | 389 kts | 44° |
| 2026-05-05 15:01 | 39.27432 | -8.58123 | 20547 ft | 393 kts | 44° |
| 2026-05-05 15:01 | 39.29244 | -8.55462 | 21075 ft | 397 kts | 44° |
| 2026-05-05 15:02 | 39.31074 | -8.52769 | 21589 ft | 401 kts | 44° |
| 2026-05-05 15:02 | 39.32895 | -8.50084 | 22086 ft | 405 kts | 44° |
| 2026-05-05 15:02 | 39.34761 | -8.47336 | 22576 ft | 409 kts | 44° |
| 2026-05-05 15:02 | 39.36645 | -8.44557 | 23082 ft | 413 kts | 44° |
| 2026-05-05 15:03 | 39.38545 | -8.41752 | 23577 ft | 417 kts | 44° |
| 2026-05-05 15:03 | 39.40465 | -8.38916 | 23992 ft | 421 kts | 44° |
| 2026-05-05 15:03 | 39.42401 | -8.36054 | 24402 ft | 424 kts | 44° |
| 2026-05-05 15:03 | 39.44350 | -8.33173 | 24811 ft | 428 kts | 44° |
| 2026-05-05 15:04 | 39.46316 | -8.30263 | 25174 ft | 432 kts | 44° |
| 2026-05-05 15:04 | 39.48299 | -8.27319 | 25554 ft | 435 kts | 44° |
| 2026-05-05 15:04 | 39.50266 | -8.24399 | 25938 ft | 438 kts | 44° |
| 2026-05-05 15:04 | 39.52277 | -8.21415 | 26354 ft | 441 kts | 44° |
| 2026-05-05 15:05 | 39.56326 | -8.15398 | 27131 ft | 446 kts | 44° |
| 2026-05-05 15:05 | 39.58368 | -8.12358 | 27504 ft | 449 kts | 44° |
| 2026-05-05 15:05 | 39.60421 | -8.09296 | 27888 ft | 451 kts | 44° |
| 2026-05-05 15:06 | 39.62487 | -8.06211 | 28281 ft | 454 kts | 44° |
| 2026-05-05 15:06 | 39.64563 | -8.03108 | 28645 ft | 457 kts | 44° |
| 2026-05-05 15:06 | 39.66681 | -8.00027 | 29006 ft | 458 kts | 42° |
| 2026-05-05 15:06 | 39.68879 | -7.97096 | 29360 ft | 460 kts | 40° |
| 2026-05-05 15:07 | 39.71182 | -7.94213 | 29709 ft | 461 kts | 38° |
| 2026-05-05 15:07 | 39.73535 | -7.91365 | 30058 ft | 463 kts | 38° |
| 2026-05-05 15:07 | 39.75905 | -7.88509 | 30344 ft | 466 kts | 38° |
| 2026-05-05 15:07 | 39.78277 | -7.85618 | 30651 ft | 468 kts | 38° |
| 2026-05-05 15:08 | 39.80640 | -7.82685 | 30929 ft | 471 kts | 39° |
| 2026-05-05 15:08 | 39.82997 | -7.79709 | 31180 ft | 473 kts | 39° |
| 2026-05-05 15:08 | 39.85351 | -7.76703 | 31439 ft | 476 kts | 40° |
| 2026-05-05 15:08 | 39.87716 | -7.73678 | 31767 ft | 476 kts | 39° |
| 2026-05-05 15:09 | 39.90078 | -7.70661 | 32136 ft | 476 kts | 39° |
| 2026-05-05 15:09 | 39.92406 | -7.67687 | 32500 ft | 475 kts | 39° |
| 2026-05-05 15:09 | 39.94766 | -7.64670 | 32859 ft | 475 kts | 39° |
| 2026-05-05 15:09 | 39.97127 | -7.61661 | 33224 ft | 475 kts | 39° |
| 2026-05-05 15:10 | 39.99492 | -7.58653 | 33596 ft | 475 kts | 39° |
| 2026-05-05 15:10 | 40.01855 | -7.55652 | 34046 ft | 473 kts | 39° |
| 2026-05-05 15:10 | 40.04198 | -7.52672 | 34516 ft | 469 kts | 39° |
| 2026-05-05 15:10 | 40.06528 | -7.49700 | 34882 ft | 467 kts | 39° |
| 2026-05-05 15:11 | 40.08844 | -7.46734 | 35192 ft | 467 kts | 39° |
| 2026-05-05 15:11 | 40.11131 | -7.43801 | 35468 ft | 466 kts | 39° |
| 2026-05-05 15:11 | 40.13442 | -7.40833 | 35743 ft | 466 kts | 39° |
| 2026-05-05 15:11 | 40.15753 | -7.37864 | 35956 ft | 467 kts | 39° |
| 2026-05-05 15:12 | 40.18060 | -7.34900 | 36010 ft | 463 kts | 39° |
| 2026-05-05 15:12 | 40.22626 | -7.29021 | 36007 ft | 459 kts | 39° |
| 2026-05-05 15:13 | 40.27171 | -7.23158 | 36006 ft | 458 kts | 39° |
| 2026-05-05 15:13 | 40.31707 | -7.17309 | 36004 ft | 457 kts | 38° |
| 2026-05-05 15:14 | 40.36207 | -7.11493 | 35999 ft | 457 kts | 39° |
| 2026-05-05 15:14 | 40.40728 | -7.05624 | 35997 ft | 457 kts | 39° |
| 2026-05-05 15:15 | 40.45245 | -6.99748 | 35996 ft | 457 kts | 39° |
| 2026-05-05 15:15 | 40.49765 | -6.93872 | 35992 ft | 457 kts | 39° |
| 2026-05-05 15:16 | 40.54278 | -6.87984 | 35991 ft | 457 kts | 39° |
| 2026-05-05 15:16 | 40.58753 | -6.82125 | 36004 ft | 457 kts | 39° |
| 2026-05-05 15:17 | 40.63267 | -6.76218 | 35996 ft | 458 kts | 39° |
| 2026-05-05 15:17 | 40.67774 | -6.70304 | 35991 ft | 458 kts | 39° |
| 2026-05-05 15:18 | 40.72284 | -6.64367 | 36011 ft | 458 kts | 39° |
| 2026-05-05 15:18 | 40.76798 | -6.58424 | 36006 ft | 458 kts | 38° |
| 2026-05-05 15:19 | 40.81274 | -6.52514 | 36002 ft | 458 kts | 38° |
| 2026-05-05 15:19 | 40.85777 | -6.46557 | 36025 ft | 458 kts | 39° |
| 2026-05-05 15:20 | 40.90279 | -6.40590 | 36013 ft | 458 kts | 38° |
| 2026-05-05 15:20 | 40.94779 | -6.34611 | 36005 ft | 459 kts | 38° |
| 2026-05-05 15:21 | 40.99247 | -6.28665 | 36023 ft | 458 kts | 38° |
| 2026-05-05 15:21 | 41.03875 | -6.22916 | 36015 ft | 455 kts | 35° |
| 2026-05-05 15:22 | 41.08629 | -6.17389 | 36009 ft | 454 kts | 34° |
| 2026-05-05 15:22 | 41.13374 | -6.11845 | 36006 ft | 455 kts | 35° |
| 2026-05-05 15:23 | 41.18084 | -6.06225 | 36013 ft | 456 kts | 36° |
| 2026-05-05 15:23 | 41.22748 | -6.00600 | 36007 ft | 456 kts | 36° |
| 2026-05-05 15:24 | 41.27443 | -5.94936 | 36003 ft | 456 kts | 36° |
| 2026-05-05 15:24 | 41.32140 | -5.89269 | 35999 ft | 456 kts | 36° |
| 2026-05-05 15:25 | 41.36844 | -5.83599 | 35997 ft | 456 kts | 36° |
| 2026-05-05 15:25 | 41.41506 | -5.77954 | 36001 ft | 456 kts | 36° |
| 2026-05-05 15:26 | 41.46198 | -5.72263 | 36016 ft | 456 kts | 37° |
| 2026-05-05 15:26 | 41.50861 | -5.66529 | 36018 ft | 458 kts | 42° |
| 2026-05-05 15:27 | 41.54519 | -5.59489 | 36008 ft | 469 kts | 62° |
| 2026-05-05 15:27 | 41.57170 | -5.51520 | 35997 ft | 470 kts | 62° |
| 2026-05-05 15:28 | 41.59806 | -5.43600 | 35997 ft | 470 kts | 62° |
| 2026-05-05 15:28 | 41.62455 | -5.35615 | 35995 ft | 470 kts | 63° |
| 2026-05-05 15:29 | 41.65093 | -5.27621 | 35997 ft | 470 kts | 63° |
| 2026-05-05 15:29 | 41.67725 | -5.19607 | 36023 ft | 470 kts | 63° |
| 2026-05-05 15:30 | 41.70358 | -5.11596 | 36016 ft | 470 kts | 63° |
| 2026-05-05 15:30 | 41.72968 | -5.03643 | 36013 ft | 470 kts | 63° |
| 2026-05-05 15:31 | 41.75585 | -4.95631 | 36014 ft | 470 kts | 63° |
| 2026-05-05 15:31 | 41.77761 | -4.88961 | 36017 ft | 470 kts | 64° |
| 2026-05-05 15:32 | 41.80368 | -4.80932 | 36014 ft | 470 kts | 64° |
| 2026-05-05 15:32 | 41.82968 | -4.72885 | 36013 ft | 470 kts | 64° |
| 2026-05-05 15:33 | 41.85563 | -4.64831 | 36010 ft | 470 kts | 64° |
| 2026-05-05 15:33 | 41.88156 | -4.56782 | 36017 ft | 470 kts | 64° |
| 2026-05-05 15:34 | 41.90726 | -4.48777 | 36021 ft | 470 kts | 64° |
| 2026-05-05 15:34 | 41.93311 | -4.40697 | 36017 ft | 470 kts | 64° |
| 2026-05-05 15:35 | 41.95887 | -4.32620 | 36015 ft | 470 kts | 64° |
| 2026-05-05 15:35 | 41.98868 | -4.23224 | 36013 ft | 470 kts | 64° |
| 2026-05-05 15:36 | 42.01003 | -4.16502 | 36011 ft | 470 kts | 64° |
| 2026-05-05 15:36 | 42.03576 | -4.08424 | 36011 ft | 470 kts | 63° |
| 2026-05-05 15:37 | 42.06341 | -4.00477 | 36000 ft | 469 kts | 62° |
| 2026-05-05 15:37 | 42.09213 | -3.92594 | 36001 ft | 469 kts | 61° |
| 2026-05-05 15:38 | 42.12047 | -3.84685 | 36002 ft | 469 kts | 62° |
| 2026-05-05 15:38 | 42.14805 | -3.76788 | 36022 ft | 469 kts | 63° |
| 2026-05-05 15:39 | 42.17570 | -3.68815 | 36016 ft | 470 kts | 63° |
| 2026-05-05 15:39 | 42.20341 | -3.60832 | 36013 ft | 470 kts | 63° |
| 2026-05-05 15:40 | 42.23118 | -3.52854 | 36009 ft | 470 kts | 63° |
| 2026-05-05 15:40 | 42.25874 | -3.44925 | 36011 ft | 470 kts | 63° |
| 2026-05-05 15:41 | 42.28643 | -3.36925 | 36012 ft | 470 kts | 63° |
| 2026-05-05 15:41 | 42.31398 | -3.28901 | 36009 ft | 471 kts | 63° |
| 2026-05-05 15:42 | 42.34150 | -3.20872 | 36013 ft | 471 kts | 63° |
| 2026-05-05 15:42 | 42.36887 | -3.12881 | 36034 ft | 471 kts | 63° |
| 2026-05-05 15:43 | 42.39639 | -3.04853 | 36043 ft | 470 kts | 64° |
| 2026-05-05 15:43 | 42.42371 | -2.96817 | 36035 ft | 470 kts | 64° |
| 2026-05-05 15:44 | 42.44774 | -2.88605 | 36024 ft | 470 kts | 76° |
| 2026-05-05 15:44 | 42.45454 | -2.79885 | 36020 ft | 470 kts | 89° |
| 2026-05-05 15:45 | 42.45573 | -2.71031 | 36010 ft | 470 kts | 89° |
| 2026-05-05 15:45 | 42.45705 | -2.62170 | 36004 ft | 471 kts | 90° |
| 2026-05-05 15:46 | 42.45825 | -2.53314 | 35998 ft | 471 kts | 90° |
| 2026-05-05 15:46 | 42.45924 | -2.44511 | 35997 ft | 471 kts | 90° |
| 2026-05-05 15:47 | 42.46017 | -2.35645 | 35997 ft | 471 kts | 89° |
| 2026-05-05 15:47 | 42.47016 | -2.26894 | 35993 ft | 471 kts | 77° |
| 2026-05-05 15:48 | 42.48471 | -2.18238 | 35989 ft | 472 kts | 77° |
| 2026-05-05 15:48 | 42.49906 | -2.09616 | 35987 ft | 472 kts | 77° |
| 2026-05-05 15:49 | 42.51344 | -2.00929 | 35983 ft | 473 kts | 78° |
| 2026-05-05 15:49 | 42.52769 | -1.92229 | 35982 ft | 473 kts | 78° |
| 2026-05-05 15:50 | 42.54184 | -1.83526 | 35977 ft | 473 kts | 78° |
| 2026-05-05 15:50 | 42.55589 | -1.74874 | 35981 ft | 473 kts | 78° |
| 2026-05-05 15:51 | 42.57002 | -1.66148 | 35984 ft | 473 kts | 78° |
| 2026-05-05 15:51 | 42.58408 | -1.57425 | 35986 ft | 474 kts | 78° |
| 2026-05-05 15:52 | 42.59808 | -1.48685 | 35972 ft | 474 kts | 79° |
| 2026-05-05 15:52 | 42.61187 | -1.39995 | 35992 ft | 474 kts | 79° |
| 2026-05-05 15:53 | 42.62569 | -1.31254 | 35989 ft | 473 kts | 79° |
| 2026-05-05 15:53 | 42.63947 | -1.22519 | 35982 ft | 473 kts | 79° |
| 2026-05-05 15:54 | 42.65317 | -1.13789 | 35959 ft | 472 kts | 79° |
| 2026-05-05 15:54 | 42.66679 | -1.05065 | 35945 ft | 472 kts | 79° |
| 2026-05-05 15:55 | 42.68023 | -0.96378 | 35951 ft | 473 kts | 79° |
| 2026-05-05 15:55 | 42.69376 | -0.87622 | 35955 ft | 473 kts | 79° |
| 2026-05-05 15:56 | 42.70723 | -0.78857 | 35956 ft | 473 kts | 79° |
| 2026-05-05 15:56 | 42.72063 | -0.70101 | 35931 ft | 473 kts | 80° |
| 2026-05-05 15:57 | 42.73390 | -0.61389 | 35933 ft | 474 kts | 80° |
| 2026-05-05 15:57 | 42.74711 | -0.52613 | 35943 ft | 474 kts | 80° |
| 2026-05-05 15:58 | 42.76025 | -0.43836 | 35951 ft | 473 kts | 80° |
| 2026-05-05 15:58 | 42.77329 | -0.35053 | 35951 ft | 473 kts | 80° |
| 2026-05-05 15:59 | 42.78626 | -0.26327 | 35964 ft | 474 kts | 79° |
| 2026-05-05 15:59 | 42.80930 | -0.17933 | 35963 ft | 475 kts | 60° |
| 2026-05-05 16:00 | 42.84866 | -0.10725 | 35960 ft | 475 kts | 50° |
| 2026-05-05 16:00 | 42.89065 | -0.03764 | 35977 ft | 476 kts | 50° |
| 2026-05-05 16:01 | 42.93230 | 0.03183 | 35961 ft | 476 kts | 50° |
| 2026-05-05 16:01 | 42.97413 | 0.10192 | 35959 ft | 476 kts | 50° |
| 2026-05-05 16:02 | 43.01596 | 0.17224 | 35959 ft | 477 kts | 50° |
| 2026-05-05 16:02 | 43.05783 | 0.24256 | 35990 ft | 477 kts | 50° |
| 2026-05-05 16:03 | 43.09930 | 0.31243 | 35988 ft | 476 kts | 50° |
| 2026-05-05 16:03 | 43.14106 | 0.38281 | 35977 ft | 476 kts | 50° |
| 2026-05-05 16:04 | 43.18277 | 0.45322 | 35970 ft | 476 kts | 51° |
| 2026-05-05 16:04 | 43.22446 | 0.52396 | 35967 ft | 477 kts | 51° |
| 2026-05-05 16:05 | 43.26605 | 0.59480 | 35981 ft | 477 kts | 51° |
| 2026-05-05 16:05 | 43.30735 | 0.66525 | 35974 ft | 477 kts | 51° |
| 2026-05-05 16:06 | 43.34891 | 0.73613 | 35974 ft | 476 kts | 51° |
| 2026-05-05 16:06 | 43.39047 | 0.80712 | 35950 ft | 477 kts | 51° |
| 2026-05-05 16:07 | 43.43192 | 0.87840 | 35967 ft | 478 kts | 51° |
| 2026-05-05 16:07 | 43.47335 | 0.94983 | 35966 ft | 477 kts | 51° |
| 2026-05-05 16:08 | 43.51445 | 1.02078 | 35969 ft | 477 kts | 51° |
| 2026-05-05 16:08 | 43.55579 | 1.09225 | 35968 ft | 477 kts | 51° |
| 2026-05-05 16:09 | 43.59707 | 1.16380 | 35957 ft | 476 kts | 52° |
| 2026-05-05 16:09 | 43.63831 | 1.23551 | 35971 ft | 477 kts | 52° |
| 2026-05-05 16:10 | 43.67946 | 1.30733 | 35976 ft | 477 kts | 52° |
| 2026-05-05 16:10 | 43.71941 | 1.37967 | 35978 ft | 477 kts | 54° |
| 2026-05-05 16:11 | 43.75842 | 1.45384 | 35974 ft | 477 kts | 54° |
| 2026-05-05 16:12 | 43.83664 | 1.60208 | 35950 ft | 477 kts | 54° |
| 2026-05-05 16:13 | 43.93444 | 1.78681 | 35946 ft | 476 kts | 54° |
| 2026-05-05 16:13 | 43.97325 | 1.86129 | 35942 ft | 476 kts | 55° |
| 2026-05-05 16:14 | 44.04837 | 2.01303 | 35940 ft | 477 kts | 56° |
| 2026-05-05 16:15 | 44.12340 | 2.16452 | 35945 ft | 477 kts | 56° |
| 2026-05-05 16:16 | 44.19855 | 2.31688 | 35926 ft | 477 kts | 56° |
| 2026-05-05 16:17 | 44.25483 | 2.43147 | 35937 ft | 478 kts | 56° |
| 2026-05-05 16:18 | 44.31067 | 2.54572 | 35942 ft | 477 kts | 56° |
| 2026-05-05 16:19 | 44.36677 | 2.66066 | 35945 ft | 478 kts | 57° |
| 2026-05-05 16:19 | 44.42270 | 2.77615 | 35935 ft | 478 kts | 57° |
| 2026-05-05 16:20 | 44.49693 | 2.92979 | 35929 ft | 478 kts | 57° |
| 2026-05-05 16:22 | 44.58962 | 3.12309 | 35914 ft | 478 kts | 57° |
| 2026-05-05 16:23 | 44.65826 | 3.28213 | 35918 ft | 476 kts | 63° |
| 2026-05-05 16:23 | 44.70516 | 3.40420 | 35912 ft | 475 kts | 62° |
| 2026-05-05 16:24 | 44.73741 | 3.48530 | 35904 ft | 475 kts | 62° |
| 2026-05-05 16:25 | 44.78607 | 3.60691 | 35899 ft | 475 kts | 62° |
| 2026-05-05 16:25 | 44.83419 | 3.72836 | 35897 ft | 476 kts | 62° |
| 2026-05-05 16:26 | 44.89835 | 3.89142 | 35883 ft | 476 kts | 62° |
| 2026-05-05 16:27 | 44.93038 | 3.97311 | 35889 ft | 476 kts | 62° |
| 2026-05-05 16:27 | 44.96230 | 4.05478 | 35901 ft | 475 kts | 62° |
| 2026-05-05 16:28 | 44.99388 | 4.13591 | 35905 ft | 474 kts | 62° |
| 2026-05-05 16:28 | 45.02557 | 4.21755 | 35884 ft | 474 kts | 62° |
| 2026-05-05 16:29 | 45.05725 | 4.29933 | 35868 ft | 475 kts | 63° |
| 2026-05-05 16:29 | 45.08898 | 4.38152 | 35866 ft | 477 kts | 63° |
| 2026-05-05 16:30 | 45.12071 | 4.46395 | 35890 ft | 477 kts | 63° |
| 2026-05-05 16:30 | 45.15222 | 4.54604 | 35888 ft | 477 kts | 63° |
| 2026-05-05 16:31 | 45.18387 | 4.62872 | 35868 ft | 477 kts | 63° |
| 2026-05-05 16:31 | 45.21551 | 4.71147 | 35864 ft | 478 kts | 63° |
| 2026-05-05 16:32 | 45.24702 | 4.79447 | 35867 ft | 478 kts | 63° |
| 2026-05-05 16:32 | 45.27860 | 4.87766 | 35879 ft | 479 kts | 63° |
| 2026-05-05 16:33 | 45.30984 | 4.96036 | 35900 ft | 478 kts | 63° |
| 2026-05-05 16:33 | 45.34120 | 5.04343 | 35873 ft | 477 kts | 63° |
| 2026-05-05 16:34 | 45.37249 | 5.12664 | 35877 ft | 477 kts | 63° |
| 2026-05-05 16:34 | 45.40369 | 5.20998 | 35873 ft | 478 kts | 63° |
| 2026-05-05 16:35 | 45.43494 | 5.29354 | 35871 ft | 478 kts | 63° |
| 2026-05-05 16:35 | 45.46615 | 5.37726 | 35892 ft | 478 kts | 64° |
| 2026-05-05 16:36 | 45.50325 | 5.45495 | 35864 ft | 479 kts | 46° |
| 2026-05-05 16:36 | 45.55213 | 5.51916 | 35867 ft | 478 kts | 41° |
| 2026-05-05 16:37 | 45.60165 | 5.58249 | 35876 ft | 478 kts | 41° |
| 2026-05-05 16:37 | 45.65119 | 5.64599 | 35890 ft | 478 kts | 41° |
| 2026-05-05 16:38 | 45.70069 | 5.70948 | 35884 ft | 478 kts | 41° |
| 2026-05-05 16:38 | 45.75016 | 5.77311 | 35886 ft | 478 kts | 41° |
| 2026-05-05 16:39 | 45.79925 | 5.83632 | 35903 ft | 479 kts | 41° |
| 2026-05-05 16:39 | 45.84880 | 5.90009 | 35908 ft | 477 kts | 41° |
| 2026-05-05 16:40 | 45.89816 | 5.96375 | 35873 ft | 477 kts | 41° |
| 2026-05-05 16:40 | 45.94753 | 6.02768 | 35873 ft | 478 kts | 41° |
| 2026-05-05 16:41 | 45.99696 | 6.09181 | 35876 ft | 479 kts | 41° |
| 2026-05-05 16:41 | 46.04612 | 6.15568 | 35906 ft | 479 kts | 41° |
| 2026-05-05 16:42 | 46.09361 | 6.22259 | 35930 ft | 478 kts | 52° |
| 2026-05-05 16:42 | 46.13219 | 6.30038 | 35930 ft | 477 kts | 56° |
| 2026-05-05 16:43 | 46.17041 | 6.37856 | 35929 ft | 477 kts | 56° |
| 2026-05-05 16:43 | 46.20832 | 6.45626 | 35912 ft | 477 kts | 56° |
| 2026-05-05 16:44 | 46.24639 | 6.53457 | 35918 ft | 476 kts | 56° |
| 2026-05-05 16:44 | 46.28432 | 6.61294 | 35920 ft | 475 kts | 56° |
| 2026-05-05 16:45 | 46.32211 | 6.69134 | 35915 ft | 474 kts | 56° |
| 2026-05-05 16:45 | 46.35984 | 6.76978 | 35917 ft | 474 kts | 56° |
| 2026-05-05 16:46 | 46.39722 | 6.84765 | 35898 ft | 474 kts | 56° |
| 2026-05-05 16:46 | 46.43476 | 6.92613 | 35897 ft | 474 kts | 56° |
| 2026-05-05 16:47 | 46.47230 | 7.00481 | 35899 ft | 474 kts | 56° |
| 2026-05-05 16:47 | 46.50972 | 7.08357 | 35899 ft | 474 kts | 56° |
| 2026-05-05 16:48 | 46.54724 | 7.16260 | 35874 ft | 477 kts | 56° |
| 2026-05-05 16:48 | 46.58706 | 7.23899 | 35866 ft | 479 kts | 45° |
| 2026-05-05 16:49 | 46.63707 | 7.30330 | 35847 ft | 481 kts | 40° |
| 2026-05-05 16:49 | 46.68773 | 7.36710 | 35858 ft | 482 kts | 40° |
| 2026-05-05 16:50 | 46.73841 | 7.43143 | 35868 ft | 484 kts | 40° |
| 2026-05-05 16:50 | 46.78816 | 7.49734 | 35877 ft | 483 kts | 49° |
| 2026-05-05 16:51 | 46.83178 | 7.57624 | 35876 ft | 483 kts | 52° |
| 2026-05-05 16:51 | 46.87187 | 7.64974 | 35880 ft | 483 kts | 52° |
| 2026-05-05 16:52 | 46.91363 | 7.72662 | 35886 ft | 482 kts | 52° |
| 2026-05-05 16:52 | 46.95521 | 7.80347 | 35903 ft | 481 kts | 52° |
| 2026-05-05 16:53 | 46.99671 | 7.88017 | 35896 ft | 480 kts | 52° |
| 2026-05-05 16:53 | 47.03771 | 7.95626 | 35898 ft | 479 kts | 52° |
| 2026-05-05 16:54 | 47.08035 | 8.03111 | 35900 ft | 478 kts | 44° |
| 2026-05-05 16:54 | 47.10442 | 8.06485 | 35724 ft | 479 kts | 44° |
| 2026-05-05 16:54 | 47.12874 | 8.09896 | 34620 ft | 489 kts | 44° |
| 2026-05-05 16:55 | 47.15334 | 8.13344 | 34027 ft | 487 kts | 44° |
| 2026-05-05 16:55 | 47.17773 | 8.16769 | 33462 ft | 483 kts | 44° |
| 2026-05-05 16:55 | 47.20357 | 8.19866 | 32886 ft | 477 kts | 28° |
| 2026-05-05 16:55 | 47.23414 | 8.21580 | 32352 ft | 467 kts | 7° |
| 2026-05-05 16:56 | 47.26553 | 8.21648 | 31802 ft | 453 kts | 345° |
| 2026-05-05 16:56 | 47.29475 | 8.20209 | 31079 ft | 437 kts | 330° |
| 2026-05-05 16:56 | 47.32186 | 8.18244 | 30209 ft | 432 kts | 328° |
| 2026-05-05 16:56 | 47.34819 | 8.16170 | 29303 ft | 426 kts | 327° |
| 2026-05-05 16:57 | 47.37401 | 8.14089 | 28389 ft | 421 kts | 327° |
| 2026-05-05 16:57 | 47.39959 | 8.12049 | 27506 ft | 416 kts | 328° |
| 2026-05-05 16:57 | 47.42513 | 8.10063 | 26635 ft | 413 kts | 329° |
| 2026-05-05 16:57 | 47.45055 | 8.08130 | 25813 ft | 409 kts | 330° |
| 2026-05-05 16:58 | 47.47581 | 8.06238 | 25024 ft | 406 kts | 330° |
| 2026-05-05 16:58 | 47.50097 | 8.04374 | 24274 ft | 403 kts | 331° |
| 2026-05-05 16:58 | 47.52648 | 8.02689 | 23518 ft | 402 kts | 344° |
| 2026-05-05 16:58 | 47.55388 | 8.02410 | 22956 ft | 390 kts | 11° |
| 2026-05-05 16:59 | 47.57812 | 8.03769 | 22596 ft | 372 kts | 36° |
| 2026-05-05 16:59 | 47.59589 | 8.06414 | 21970 ft | 358 kts | 63° |
| 2026-05-05 16:59 | 47.60370 | 8.09818 | 21266 ft | 346 kts | 90° |
| 2026-05-05 16:59 | 47.60023 | 8.13241 | 20538 ft | 333 kts | 118° |
| 2026-05-05 17:00 | 47.58747 | 8.16019 | 19796 ft | 326 kts | 134° |
| 2026-05-05 17:00 | 47.57282 | 8.18592 | 19066 ft | 327 kts | 135° |
| 2026-05-05 17:00 | 47.55643 | 8.20768 | 18651 ft | 308 kts | 157° |
| 2026-05-05 17:00 | 47.53704 | 8.22019 | 18109 ft | 303 kts | 158° |
| 2026-05-05 17:01 | 47.52076 | 8.24030 | 17804 ft | 318 kts | 129° |
| 2026-05-05 17:01 | 47.51120 | 8.27068 | 17558 ft | 335 kts | 106° |
| 2026-05-05 17:01 | 47.51029 | 8.30538 | 17318 ft | 344 kts | 82° |
| 2026-05-05 17:01 | 47.51772 | 8.33800 | 17069 ft | 338 kts | 61° |
| 2026-05-05 17:02 | 47.53187 | 8.36510 | 16660 ft | 331 kts | 41° |
| 2026-05-05 17:02 | 47.55091 | 8.38315 | 16265 ft | 318 kts | 19° |
| 2026-05-05 17:02 | 47.57158 | 8.39096 | 16132 ft | 296 kts | 359° |
| 2026-05-05 17:02 | 47.59101 | 8.38705 | 15893 ft | 274 kts | 332° |
| 2026-05-05 17:03 | 47.60606 | 8.37161 | 15470 ft | 258 kts | 302° |
| 2026-05-05 17:03 | 47.61353 | 8.34866 | 15071 ft | 239 kts | 272° |
| 2026-05-05 17:03 | 47.61356 | 8.32510 | 14862 ft | 223 kts | 261° |
| 2026-05-05 17:03 | 47.61207 | 8.30204 | 14351 ft | 226 kts | 260° |
| 2026-05-05 17:04 | 47.61036 | 8.27888 | 13917 ft | 225 kts | 259° |
| 2026-05-05 17:04 | 47.60863 | 8.25585 | 13483 ft | 224 kts | 259° |
| 2026-05-05 17:04 | 47.60697 | 8.23330 | 13035 ft | 222 kts | 259° |
| 2026-05-05 17:04 | 47.60529 | 8.21064 | 12589 ft | 220 kts | 259° |
| 2026-05-05 17:05 | 47.60396 | 8.18808 | 12129 ft | 221 kts | 268° |
| 2026-05-05 17:05 | 47.60813 | 8.16573 | 11410 ft | 239 kts | 296° |
| 2026-05-05 17:05 | 47.62090 | 8.14870 | 10731 ft | 260 kts | 331° |
| 2026-05-05 17:05 | 47.63908 | 8.14510 | 10173 ft | 274 kts | 7° |
| 2026-05-05 17:06 | 47.65617 | 8.15771 | 9576 ft | 281 kts | 44° |
| 2026-05-05 17:06 | 47.66747 | 8.18123 | 9015 ft | 280 kts | 62° |
| 2026-05-05 17:06 | 47.67610 | 8.20709 | 8482 ft | 279 kts | 67° |
| 2026-05-05 17:06 | 47.68050 | 8.23408 | 7976 ft | 270 kts | 95° |
| 2026-05-05 17:07 | 47.67686 | 8.26061 | 7490 ft | 258 kts | 119° |
| 2026-05-05 17:07 | 47.66702 | 8.28206 | 7004 ft | 249 kts | 141° |
| 2026-05-05 17:07 | 47.65437 | 8.29953 | 6420 ft | 252 kts | 142° |
| 2026-05-05 17:07 | 47.64140 | 8.31736 | 5760 ft | 254 kts | 142° |
| 2026-05-05 17:08 | 47.62884 | 8.33474 | 5344 ft | 239 kts | 141° |
| 2026-05-05 17:08 | 47.61703 | 8.35103 | 5034 ft | 226 kts | 142° |
| 2026-05-05 17:08 | 47.60573 | 8.36655 | 4745 ft | 216 kts | 142° |
| 2026-05-05 17:08 | 47.59515 | 8.38113 | 4457 ft | 201 kts | 143° |
| 2026-05-05 17:09 | 47.58536 | 8.39460 | 4207 ft | 181 kts | 142° |
| 2026-05-05 17:09 | 47.57662 | 8.40662 | 3963 ft | 163 kts | 143° |
| 2026-05-05 17:09 | 47.56867 | 8.41752 | 3748 ft | 150 kts | 143° |
| 2026-05-05 17:09 | 47.56117 | 8.42779 | 3557 ft | 145 kts | 143° |
| 2026-05-05 17:10 | 47.55396 | 8.43767 | 3374 ft | 142 kts | 142° |
| 2026-05-05 17:10 | 47.54676 | 8.44753 | 3213 ft | 140 kts | 142° |
| 2026-05-05 17:10 | 47.53963 | 8.45729 | 3016 ft | 139 kts | 141° |
| 2026-05-05 17:10 | 47.53253 | 8.46701 | 2837 ft | 141 kts | 141° |
| 2026-05-05 17:11 | 47.52532 | 8.47688 | 2655 ft | 141 kts | 141° |
| 2026-05-05 17:11 | 47.51820 | 8.48664 | 2469 ft | 138 kts | 140° |
| 2026-05-05 17:11 | 47.51123 | 8.49619 | 2260 ft | 136 kts | 140° |
| 2026-05-05 17:11 | 47.50430 | 8.50567 | 2072 ft | 136 kts | 141° |